Time;durP1;ratioP1;P1;durP2;ratioP2;P2;SDS_P1;SDS_P2;PMS_P1;PMS_P2;Temp;Humidity;BMP_temperature;BMP_pressure;BME280_temperature;BME280_humidity;BME280_pressure;Samples;Min_cycle;Max_cycle;Signal;HPM_P1;HPM_P2
2022/11/22 00:02:24;;;;;;;0.80;0.80;;;-0.20;99.90;;;;;;4380904;32;20094;-77
2022/11/22 00:04:49;;;;;;;0.50;0.50;;;-0.30;99.90;;;;;;4361865;32;20203;-77
2022/11/22 00:07:15;;;;;;;0.95;0.88;;;-0.30;99.90;;;;;;4368423;32;20683;-77
2022/11/22 00:09:40;;;;;;;0.50;0.50;;;-0.30;99.90;;;;;;4385440;32;20093;-77
2022/11/22 00:12:06;;;;;;;0.43;0.43;;;-0.30;99.90;;;;;;4387238;32;20090;-77
2022/11/22 00:14:31;;;;;;;1.37;1.25;;;-0.30;99.90;;;;;;4386006;32;20082;-78
2022/11/22 00:16:57;;;;;;;0.93;0.93;;;-0.30;99.90;;;;;;4384997;32;20126;-77
2022/11/22 00:19:22;;;;;;;0.60;0.60;;;-0.30;99.90;;;;;;4387247;32;20090;-77
2022/11/22 00:21:48;;;;;;;0.50;0.50;;;-0.40;99.90;;;;;;4386339;32;20145;-77
2022/11/22 00:24:13;;;;;;;0.50;0.50;;;-0.50;99.90;;;;;;4386314;32;20093;-77
2022/11/22 00:26:39;;;;;;;0.88;0.88;;;-0.50;99.90;;;;;;4384576;32;20085;-77
2022/11/22 00:29:04;;;;;;;1.37;1.27;;;-0.50;99.90;;;;;;4387180;32;20500;-77
2022/11/22 00:31:30;;;;;;;1.33;1.25;;;-0.60;99.90;;;;;;4384192;32;20106;-77
2022/11/22 00:33:56;;;;;;;1.20;0.95;;;-0.60;99.90;;;;;;4366239;32;20428;-77
2022/11/22 00:36:22;;;;;;;0.50;0.50;;;-0.50;99.90;;;;;;4362347;32;20069;-77
2022/11/22 00:38:47;;;;;;;0.80;0.80;;;-0.50;99.90;;;;;;4385857;32;20086;-77
2022/11/22 00:41:13;;;;;;;1.85;1.40;;;-0.40;99.90;;;;;;4387679;32;20444;-78
2022/11/22 00:43:39;;;;;;;1.33;1.25;;;-0.40;99.90;;;;;;4385821;32;20101;-77
2022/11/22 00:46:04;;;;;;;0.70;0.70;;;-0.50;99.90;;;;;;4385212;32;21769;-77
2022/11/22 00:48:30;;;;;;;0.50;0.50;;;-0.50;99.90;;;;;;4387676;32;20498;-77
2022/11/22 00:50:55;;;;;;;0.50;0.50;;;-0.50;99.90;;;;;;4388402;32;20075;-77
2022/11/22 00:53:21;;;;;;;0.60;0.60;;;-0.50;99.90;;;;;;4385279;32;20077;-77
2022/11/22 00:55:47;;;;;;;0.50;0.50;;;-0.50;99.90;;;;;;4387141;32;20507;-77
2022/11/22 00:58:13;;;;;;;0.50;0.50;;;-0.50;99.90;;;;;;4387053;32;20129;-77
2022/11/22 01:00:38;;;;;;;0.40;0.40;;;-0.60;99.90;;;;;;4385214;32;20079;-77
2022/11/22 01:03:04;;;;;;;0.85;0.85;;;-0.60;99.90;;;;;;4372888;32;20081;-77
2022/11/22 01:05:29;;;;;;;1.15;1.08;;;-0.60;99.90;;;;;;4358213;32;20119;-77
2022/11/22 01:07:55;;;;;;;0.60;0.60;;;-0.60;99.90;;;;;;4375594;32;20079;-77
2022/11/22 01:10:21;;;;;;;0.47;0.47;;;-0.60;99.90;;;;;;4385109;32;20591;-78
2022/11/22 01:12:46;;;;;;;0.90;0.90;;;-0.70;99.90;;;;;;4382869;32;20089;-77
2022/11/22 01:15:12;;;;;;;0.60;0.60;;;-0.80;99.90;;;;;;4381980;32;20073;-77
2022/11/22 01:17:37;;;;;;;1.33;1.23;;;-0.80;99.90;;;;;;4384132;32;20289;-77
2022/11/22 01:20:03;;;;;;;1.25;1.17;;;-0.80;99.90;;;;;;4383992;32;20098;-76
2022/11/22 01:22:29;;;;;;;1.10;0.80;;;-0.70;99.90;;;;;;4382347;32;20070;-76
2022/11/22 01:24:54;;;;;;;0.40;0.40;;;-0.60;99.90;;;;;;4386959;32;20557;-76
2022/11/22 01:27:20;;;;;;;0.40;0.40;;;-0.70;99.90;;;;;;4384864;32;20074;-75
2022/11/22 01:29:45;;;;;;;1.52;0.77;;;-0.80;99.90;;;;;;4386087;32;20102;-76
2022/11/22 01:32:11;;;;;;;0.40;0.40;;;-0.70;99.90;;;;;;4380093;32;20101;-76
2022/11/22 01:34:36;;;;;;;0.50;0.50;;;-0.70;99.90;;;;;;4357246;32;20093;-76
2022/11/22 01:37:02;;;;;;;0.55;0.55;;;-0.70;99.90;;;;;;4364334;32;20137;-76
2022/11/22 01:39:28;;;;;;;1.48;0.65;;;-0.80;99.90;;;;;;4383790;32;20081;-76
2022/11/22 01:41:53;;;;;;;0.70;0.70;;;-0.90;99.90;;;;;;4385714;32;20427;-76
2022/11/22 01:44:21;;;;;;;1.55;1.15;;;-0.90;99.90;;;;;;4383867;32;20085;-76
2022/11/22 01:46:51;;;;;;;0.98;0.93;;;-0.80;99.90;;;;;;4382931;32;20444;-76
2022/11/22 01:49:40;;;;;;;0.80;0.80;;;-0.80;99.90;;;;;;4383042;32;20164;-76
2022/11/22 01:52:12;;;;;;;0.60;0.60;;;-0.80;99.90;;;;;;4373509;32;20198;-76
2022/11/22 01:54:40;;;;;;;1.12;1.02;;;-0.90;99.90;;;;;;4382973;32;20515;-76
2022/11/22 01:57:11;;;;;;;0.52;0.52;;;-0.90;99.90;;;;;;4383558;32;20121;-76
2022/11/22 01:59:42;;;;;;;0.80;0.80;;;-0.90;99.90;;;;;;4386352;32;20101;-76
2022/11/22 02:02:07;;;;;;;3.03;1.10;;;-0.80;99.90;;;;;;4380165;32;20114;-76
2022/11/22 02:04:35;;;;;;;0.73;0.73;;;-0.80;99.90;;;;;;4357233;32;20082;-76
2022/11/22 02:07:31;;;;;;;5.12;2.33;;;-0.90;99.90;;;;;;4364641;32;20062;-77
2022/11/22 02:09:57;;;;;;;1.75;1.48;;;-0.80;99.90;;;;;;4374079;32;20136;-77
2022/11/22 02:12:28;;;;;;;0.80;0.80;;;-0.90;99.90;;;;;;4384445;32;20074;-77
2022/11/22 02:14:54;;;;;;;0.82;0.82;;;-0.90;99.90;;;;;;4384148;32;20086;-76
2022/11/22 02:17:19;;;;;;;0.40;0.40;;;-0.90;99.90;;;;;;4383311;32;20113;-77
2022/11/22 02:19:48;;;;;;;0.68;0.68;;;-0.90;99.90;;;;;;4384068;32;20085;-75
2022/11/22 02:22:27;;;;;;;5.68;2.15;;;-0.90;99.90;;;;;;4385010;32;20071;-76
2022/11/22 02:25:01;;;;;;;1.25;1.15;;;-1.00;99.90;;;;;;4384136;32;20062;-76
2022/11/22 02:27:26;;;;;;;0.60;0.60;;;-1.00;99.90;;;;;;4382137;32;20577;-77
2022/11/22 02:29:52;;;;;;;0.60;0.60;;;-1.00;99.90;;;;;;4384122;32;20159;-77
2022/11/22 02:32:17;;;;;;;0.50;0.50;;;-1.00;99.90;;;;;;4378714;32;20121;-77
2022/11/22 02:34:45;;;;;;;3.22;1.08;;;-0.90;99.90;;;;;;4356000;32;20071;-77
2022/11/22 02:37:13;;;;;;;0.60;0.60;;;-0.90;99.90;;;;;;4368172;32;20114;-77
2022/11/22 02:39:40;;;;;;;1.10;1.00;;;-1.00;99.90;;;;;;4386859;32;20093;-78
2022/11/22 02:42:06;;;;;;;0.95;0.95;;;-0.90;99.90;;;;;;4384317;32;20090;-76
2022/11/22 02:44:32;;;;;;;2.20;1.45;;;-0.90;99.90;;;;;;4384176;32;20094;-76
2022/11/22 02:46:58;;;;;;;0.60;0.60;;;-1.00;99.90;;;;;;4383023;32;20129;-76
2022/11/22 02:49:24;;;;;;;0.60;0.60;;;-1.00;99.90;;;;;;4383555;32;20094;-76
2022/11/22 02:51:51;;;;;;;0.60;0.60;;;-0.90;99.90;;;;;;4386061;32;20086;-77
2022/11/22 02:54:17;;;;;;;0.80;0.80;;;-0.90;99.90;;;;;;4383697;32;20070;-76
2022/11/22 02:56:42;;;;;;;1.90;1.62;;;-0.90;99.90;;;;;;4383425;32;20102;-76
2022/11/22 02:59:08;;;;;;;0.77;0.77;;;-0.80;99.90;;;;;;4385904;32;20654;-76
2022/11/22 03:01:34;;;;;;;0.88;0.88;;;-0.80;99.90;;;;;;4384406;32;20132;-76
2022/11/22 03:03:59;;;;;;;0.70;0.70;;;-0.80;99.90;;;;;;4363839;32;20729;-76
2022/11/22 03:06:25;;;;;;;0.60;0.60;;;-0.90;99.90;;;;;;4359641;32;20431;-76
2022/11/22 03:08:50;;;;;;;1.08;0.98;;;-0.90;99.90;;;;;;4384134;32;20117;-76
2022/11/22 03:11:16;;;;;;;0.90;0.90;;;-0.90;99.90;;;;;;4387125;32;20151;-76
2022/11/22 03:13:41;;;;;;;8.80;2.28;;;-0.80;99.90;;;;;;4385691;32;20452;-76
2022/11/22 03:16:07;;;;;;;0.62;0.62;;;-0.90;99.90;;;;;;4387282;32;20106;-75
2022/11/22 03:18:33;;;;;;;0.60;0.60;;;-0.90;99.90;;;;;;4387049;32;20090;-76
2022/11/22 03:21:03;;;;;;;1.25;1.15;;;-1.00;99.90;;;;;;4384694;32;20059;-76
2022/11/22 03:23:29;;;;;;;0.70;0.70;;;-1.00;99.90;;;;;;4385573;32;20086;-78
2022/11/22 03:25:55;;;;;;;1.48;1.27;;;-1.00;99.90;;;;;;4387021;32;20610;-77
2022/11/22 03:28:21;;;;;;;0.55;0.55;;;-1.00;99.90;;;;;;4384375;32;20120;-77
2022/11/22 03:30:46;;;;;;;1.17;1.08;;;-1.00;99.90;;;;;;4386413;32;20408;-77
2022/11/22 03:33:11;;;;;;;1.27;1.20;;;-1.00;99.90;;;;;;4376022;32;20051;-77
2022/11/22 03:35:37;;;;;;;0.52;0.52;;;-1.00;99.90;;;;;;4360606;32;20090;-76
2022/11/22 03:38:02;;;;;;;0.50;0.50;;;-1.00;99.90;;;;;;4375862;32;20074;-76
2022/11/22 03:40:28;;;;;;;1.95;1.45;;;-1.00;99.90;;;;;;4387332;32;20089;-77
2022/11/22 03:42:53;;;;;;;0.75;0.75;;;-1.00;99.90;;;;;;4386568;32;20102;-76
2022/11/22 03:45:19;;;;;;;0.68;0.68;;;-1.00;99.90;;;;;;4390626;32;20088;-76
2022/11/22 03:47:44;;;;;;;1.02;1.02;;;-1.00;99.90;;;;;;4388383;32;20400;-76
2022/11/22 03:50:10;;;;;;;0.85;0.85;;;-0.90;99.90;;;;;;4385448;32;20062;-76
2022/11/22 03:52:35;;;;;;;4.05;2.05;;;-1.00;99.90;;;;;;4384760;32;20055;-76
2022/11/22 03:55:01;;;;;;;0.73;0.73;;;-1.00;99.90;;;;;;4385624;32;20467;-75
2022/11/22 03:57:27;;;;;;;0.50;0.50;;;-1.00;99.90;;;;;;4385006;32;20066;-78
2022/11/22 03:59:52;;;;;;;0.50;0.50;;;-1.10;99.90;;;;;;4388376;32;20535;-76
2022/11/22 04:02:18;;;;;;;0.68;0.68;;;-1.10;99.90;;;;;;4382302;32;20113;-75
2022/11/22 04:04:44;;;;;;;0.70;0.70;;;-1.10;99.90;;;;;;4359030;32;20570;-78
2022/11/22 04:07:09;;;;;;;0.80;0.80;;;-1.10;99.90;;;;;;4369337;32;20079;-77
2022/11/22 04:09:35;;;;;;;4.15;1.60;;;-1.10;99.90;;;;;;4384711;32;20161;-77
2022/11/22 04:12:00;;;;;;;0.75;0.75;;;-1.10;99.90;;;;;;4387115;32;20232;-78
2022/11/22 04:15:26;;;;;;;0.80;0.80;;;-1.00;99.90;;;;;;4384039;32;20419;-77
2022/11/22 04:17:12;;;;;;;1.23;1.12;;;-1.00;99.90;;;;;;4375929;32;20114;-77
2022/11/22 04:21:32;;;;;;;0.70;0.70;;;-1.00;99.90;;;;;;4386026;32;20077;-75
2022/11/22 04:22:23;;;;;;;2.22;2.03;;;-1.00;99.90;;;;;;4374948;32;20344;-78
2022/11/22 04:25:20;;;;;;;2.58;2.35;;;-1.00;99.90;;;;;;4387343;32;20121;-77
2022/11/22 04:27:34;;;;;;;0.40;0.40;;;-1.00;99.90;;;;;;4374119;32;20093;-75
2022/11/22 04:30:00;;;;;;;3.25;1.62;;;-1.00;99.90;;;;;;4386761;32;20074;-76
2022/11/22 04:32:57;;;;;;;1.70;1.58;;;-0.90;99.90;;;;;;4378894;32;20101;-75
2022/11/22 04:35:13;;;;;;;3.85;1.83;;;-0.90;99.90;;;;;;4347180;32;20360;-77
2022/11/22 04:37:39;;;;;;;1.30;1.17;;;-0.90;99.90;;;;;;4375357;32;20062;-75
2022/11/22 04:40:05;;;;;;;4.87;2.20;;;-0.80;99.90;;;;;;4383429;32;20122;-77
2022/11/22 04:44:41;;;;;;;1.75;1.35;;;-0.80;99.90;;;;;;4387117;32;20094;-77
2022/11/22 04:45:16;;;;;;;1.77;1.67;;;-0.80;99.90;;;;;;4375408;32;20087;-77
2022/11/22 04:48:13;;;;;;;0.82;0.82;;;-0.70;99.90;;;;;;4386797;32;20074;-77
2022/11/22 04:53:02;;;;;;;0.98;0.98;;;-0.60;99.90;;;;;;4373590;32;20093;-77
2022/11/22 04:53:16;;;;;;;0.68;0.68;;;-0.60;99.90;;;;;;4375578;32;20186;-78
2022/11/22 04:55:43;;;;;;;0.70;0.70;;;-0.70;99.90;;;;;;4385320;32;20094;-76
2022/11/22 04:58:10;;;;;;;6.18;2.70;;;-0.70;99.90;;;;;;4384000;32;20077;-77
2022/11/22 05:00:35;;;;;;;0.60;0.60;;;-0.60;99.90;;;;;;4384728;32;20078;-78
2022/11/22 05:03:02;;;;;;;1.25;1.20;;;-0.60;99.90;;;;;;4375788;32;20120;-77
2022/11/22 05:05:28;;;;;;;0.80;0.80;;;-0.60;99.90;;;;;;4357180;32;20113;-77
2022/11/22 05:07:53;;;;;;;1.45;1.35;;;-0.60;99.90;;;;;;4377626;32;20135;-77
2022/11/22 05:10:19;;;;;;;0.82;0.82;;;-0.70;99.90;;;;;;4385671;32;20784;-78
2022/11/22 05:12:45;;;;;;;2.33;1.85;;;-0.60;99.90;;;;;;4385008;32;20075;-77
2022/11/22 05:15:11;;;;;;;1.23;1.15;;;-0.60;99.90;;;;;;4386546;32;20074;-78
2022/11/22 05:17:37;;;;;;;0.55;0.55;;;-0.60;99.90;;;;;;4384550;32;20078;-76
2022/11/22 05:20:06;;;;;;;1.45;1.05;;;-0.50;99.90;;;;;;4383054;32;20065;-76
2022/11/22 05:24:03;;;;;;;0.70;0.70;;;-0.60;99.90;;;;;;4361714;32;20141;-76
2022/11/22 05:25:18;;;;;;;1.15;1.05;;;-0.60;99.90;;;;;;4337973;32;20082;-76
2022/11/22 05:27:43;;;;;;;4.05;2.40;;;-0.60;99.90;;;;;;4345167;32;20794;-76
2022/11/22 05:30:09;;;;;;;0.93;0.93;;;-0.60;99.90;;;;;;4347915;32;20169;-76
2022/11/22 05:32:35;;;;;;;1.05;1.02;;;-0.60;99.90;;;;;;4337974;32;20621;-76
2022/11/22 05:35:00;;;;;;;2.37;2.20;;;-0.60;99.90;;;;;;4322614;32;20078;-76
2022/11/22 05:37:26;;;;;;;1.40;1.30;;;-0.60;99.90;;;;;;4355620;32;20475;-76
2022/11/22 05:39:52;;;;;;;4.85;2.15;;;-0.60;99.90;;;;;;4386085;32;20090;-77
2022/11/22 05:42:18;;;;;;;1.12;1.12;;;-0.60;99.90;;;;;;4382613;32;20138;-77
2022/11/22 05:44:43;;;;;;;1.12;1.12;;;-0.60;99.90;;;;;;4385517;32;20462;-77
2022/11/22 05:47:09;;;;;;;1.67;1.48;;;-0.60;99.90;;;;;;4385440;32;20073;-77
2022/11/22 05:49:34;;;;;;;0.50;0.50;;;-0.50;99.90;;;;;;4384664;32;20546;-77
2022/11/22 05:52:01;;;;;;;0.60;0.60;;;-0.40;99.90;;;;;;4373051;32;20078;-77
2022/11/22 05:54:27;;;;;;;0.90;0.90;;;-0.50;99.90;;;;;;4343219;32;20478;-77
2022/11/22 05:56:52;;;;;;;7.57;2.40;;;-0.50;99.90;;;;;;4358998;32;20460;-76
2022/11/22 05:59:18;;;;;;;0.80;0.80;;;-0.40;99.90;;;;;;4386186;32;20073;-76
2022/11/22 06:01:43;;;;;;;1.75;1.45;;;-0.30;99.90;;;;;;4379118;32;20078;-76
2022/11/22 06:04:10;;;;;;;3.12;1.65;;;-0.40;99.90;;;;;;4337524;32;20114;-76
2022/11/22 06:06:35;;;;;;;1.45;1.35;;;-0.40;99.90;;;;;;4335277;32;20128;-76
2022/11/22 06:09:02;;;;;;;1.10;1.05;;;-0.40;99.90;;;;;;4338518;32;20065;-76
2022/11/22 06:11:27;;;;;;;1.70;1.60;;;-0.40;99.90;;;;;;4343269;32;20201;-76
2022/11/22 06:13:56;;;;;;;1.27;1.23;;;-0.30;99.90;;;;;;4330751;32;20138;-76
2022/11/22 06:16:22;;;;;;;2.00;1.85;;;-0.40;99.90;;;;;;4340517;32;20082;-78
2022/11/22 06:18:48;;;;;;;2.83;1.12;;;-0.40;99.90;;;;;;4300722;32;20812;-76
2022/11/22 06:21:17;;;;;;;1.80;1.65;;;-0.40;99.90;;;;;;4315226;32;20339;-78
2022/11/22 06:23:43;;;;;;;0.95;0.95;;;-0.40;99.90;;;;;;4281386;32;20860;-78
2022/11/22 06:26:11;;;;;;;1.00;1.00;;;-0.30;99.90;;;;;;4298467;32;20218;-77
2022/11/22 06:28:38;;;;;;;0.60;0.60;;;-0.30;99.90;;;;;;4317181;32;20348;-77
2022/11/22 06:31:06;;;;;;;0.95;0.95;;;-0.30;99.90;;;;;;4279400;32;20992;-77
2022/11/22 06:33:32;;;;;;;7.87;3.65;;;-0.20;99.90;;;;;;4303837;32;20227;-78
2022/11/22 06:36:07;;;;;;;0.50;0.50;;;-0.20;99.90;;;;;;4318358;32;20328;-79
2022/11/22 06:38:33;;;;;;;1.40;1.02;;;-0.20;99.90;;;;;;4325203;32;20194;-77
2022/11/22 06:41:01;;;;;;;4.22;1.83;;;-0.10;99.90;;;;;;4322214;32;20952;-76
2022/11/22 06:43:29;;;;;;;8.32;2.35;;;-0.20;99.90;;;;;;4322841;32;20314;-76
2022/11/22 06:45:57;;;;;;;0.57;0.57;;;-0.20;99.90;;;;;;4346247;32;20470;-77
2022/11/22 06:48:24;;;;;;;0.60;0.60;;;-0.20;99.90;;;;;;4346123;32;20245;-79
2022/11/22 06:50:49;;;;;;;2.92;2.25;;;-0.10;99.90;;;;;;4351786;32;20451;-77
2022/11/22 06:53:15;;;;;;;2.08;1.45;;;0.00;99.90;;;;;;4339960;32;20272;-78
2022/11/22 06:55:40;;;;;;;0.52;0.52;;;0.00;99.90;;;;;;4353898;32;20096;-79
2022/11/22 06:58:06;;;;;;;0.85;0.85;;;0.10;99.90;;;;;;4348303;32;20242;-77
2022/11/22 07:00:31;;;;;;;0.77;0.77;;;0.10;99.90;;;;;;4327554;32;20139;-77
2022/11/22 07:02:57;;;;;;;3.62;2.37;;;0.00;99.90;;;;;;4327707;32;20162;-79
2022/11/22 07:05:22;;;;;;;1.23;1.12;;;0.00;99.90;;;;;;4334607;32;20278;-77
2022/11/22 07:07:48;;;;;;;1.30;1.20;;;0.00;99.90;;;;;;4343610;32;20613;-77
2022/11/22 07:10:13;;;;;;;2.70;1.87;;;-0.10;99.90;;;;;;4344764;32;26077;-78
2022/11/22 07:12:39;;;;;;;7.68;1.52;;;-0.10;99.90;;;;;;4352669;32;20200;-77
2022/11/22 07:15:05;;;;;;;0.82;0.82;;;-0.20;99.90;;;;;;4360407;32;20101;-77
2022/11/22 07:17:33;;;;;;;0.60;0.60;;;-0.20;99.90;;;;;;4362680;32;20074;-79
2022/11/22 07:19:59;;;;;;;0.50;0.50;;;-0.20;99.90;;;;;;4348956;32;20085;-79
2022/11/22 07:22:25;;;;;;;1.12;0.95;;;0.00;99.90;;;;;;4363060;32;20492;-79
2022/11/22 07:24:50;;;;;;;2.33;2.05;;;0.10;99.90;;;;;;4359354;32;20197;-79
2022/11/22 07:27:16;;;;;;;0.73;0.62;;;0.00;99.90;;;;;;4368093;32;20971;-78
2022/11/22 07:29:41;;;;;;;1.10;1.10;;;0.00;99.90;;;;;;4354333;32;20581;-79
2022/11/22 07:32:07;;;;;;;0.75;0.75;;;0.10;99.90;;;;;;4339971;32;197981;-77
2022/11/22 07:34:32;;;;;;;0.80;0.80;;;0.20;99.90;;;;;;4334486;32;20409;-79
2022/11/22 07:36:58;;;;;;;1.08;1.08;;;0.20;99.90;;;;;;4335530;32;20230;-78
2022/11/22 07:39:23;;;;;;;0.62;0.62;;;0.20;99.90;;;;;;4360158;32;20118;-78
2022/11/22 07:41:55;;;;;;;1.02;1.00;;;0.10;99.90;;;;;;4362243;32;20648;-78
2022/11/22 07:44:21;;;;;;;0.90;0.90;;;0.10;99.90;;;;;;4366634;32;20098;-78
2022/11/22 07:46:47;;;;;;;0.82;0.82;;;0.10;99.90;;;;;;4362463;32;20197;-77
2022/11/22 07:49:13;;;;;;;0.70;0.70;;;0.10;99.90;;;;;;4335528;32;21343;-77
2022/11/22 07:51:38;;;;;;;0.60;0.60;;;0.20;99.90;;;;;;4342490;32;20807;-78
2022/11/22 07:54:04;;;;;;;1.05;1.05;;;0.10;99.90;;;;;;4344218;32;20125;-78
2022/11/22 07:56:30;;;;;;;1.23;1.12;;;0.10;99.90;;;;;;4351580;32;20086;-78
2022/11/22 07:58:55;;;;;;;3.75;1.95;;;0.20;99.90;;;;;;4355231;32;20122;-78
2022/11/22 08:01:22;;;;;;;0.45;0.45;;;0.40;99.90;;;;;;4338434;32;20444;-78
2022/11/22 08:03:47;;;;;;;1.45;1.35;;;0.40;99.90;;;;;;4335739;32;20384;-78
2022/11/22 08:06:14;;;;;;;1.42;1.33;;;0.50;99.90;;;;;;4342128;32;20500;-78
2022/11/22 08:08:39;;;;;;;1.23;1.15;;;0.40;99.90;;;;;;4358795;32;20853;-78
2022/11/22 08:11:06;;;;;;;0.88;0.88;;;0.30;99.90;;;;;;4354830;32;20326;-78
2022/11/22 08:13:33;;;;;;;0.50;0.50;;;0.30;99.90;;;;;;4351403;32;20090;-78
2022/11/22 08:16:04;;;;;;;0.70;0.70;;;0.40;99.90;;;;;;4364623;32;20070;-78
2022/11/22 08:18:29;;;;;;;1.45;1.10;;;0.50;99.90;;;;;;4349509;32;20121;-77
2022/11/22 08:21:08;;;;;;;1.37;1.08;;;0.50;99.90;;;;;;4348517;32;20725;-79
2022/11/22 08:23:35;;;;;;;0.70;0.70;;;0.60;99.90;;;;;;4357857;32;20090;-79
2022/11/22 08:26:00;;;;;;;1.48;1.25;;;0.70;99.90;;;;;;4352846;32;20105;-77
2022/11/22 08:28:26;;;;;;;2.90;1.65;;;0.60;99.90;;;;;;4340266;32;20086;-76
2022/11/22 08:30:58;;;;;;;0.90;0.90;;;0.70;99.90;;;;;;4328530;32;20950;-77
2022/11/22 08:33:25;;;;;;;0.93;0.93;;;0.70;99.90;;;;;;4311525;32;20629;-80
2022/11/22 08:35:51;;;;;;;3.40;1.15;;;0.60;99.90;;;;;;4331948;32;20074;-78
2022/11/22 08:38:17;;;;;;;0.60;0.60;;;0.50;99.90;;;;;;4349338;32;20597;-81
2022/11/22 08:40:43;;;;;;;1.05;0.95;;;0.60;99.90;;;;;;4357120;32;20098;-82
2022/11/22 08:43:09;;;;;;;4.15;1.67;;;0.60;99.90;;;;;;4365396;32;20272;-79
2022/11/22 08:45:34;;;;;;;0.80;0.80;;;0.50;99.90;;;;;;4359229;32;20476;-78
2022/11/22 08:48:00;;;;;;;0.80;0.80;;;0.50;99.90;;;;;;4346627;32;20123;-78
2022/11/22 08:50:26;;;;;;;1.00;1.00;;;0.60;99.90;;;;;;4330874;32;20245;-76
2022/11/22 08:52:53;;;;;;;1.12;1.02;;;0.50;99.90;;;;;;4344906;32;20109;-78
2022/11/22 08:55:19;;;;;;;0.77;0.77;;;0.50;99.90;;;;;;4345955;32;20442;-78
2022/11/22 08:57:49;;;;;;;1.27;1.10;;;0.50;99.90;;;;;;4355148;32;21745;-78
2022/11/22 09:00:14;;;;;;;7.22;2.95;;;0.60;99.90;;;;;;4341193;32;20248;-78
2022/11/22 09:02:40;;;;;;;0.98;0.98;;;0.50;99.90;;;;;;4343117;32;20609;-77
2022/11/22 09:05:06;;;;;;;0.50;0.50;;;0.60;99.90;;;;;;4335401;32;20085;-77
2022/11/22 09:07:31;;;;;;;1.00;0.93;;;0.60;99.90;;;;;;4351947;32;20101;-77
2022/11/22 09:09:57;;;;;;;1.20;1.20;;;0.60;99.90;;;;;;4352307;32;20491;-77
2022/11/22 09:12:23;;;;;;;0.60;0.60;;;0.70;99.90;;;;;;4358836;32;20102;-78
2022/11/22 09:14:50;;;;;;;1.58;1.48;;;0.60;99.90;;;;;;4358459;32;20140;-79
2022/11/22 09:17:15;;;;;;;0.85;0.85;;;0.60;99.90;;;;;;4358928;32;20684;-78
2022/11/22 09:19:41;;;;;;;1.37;1.15;;;0.60;99.90;;;;;;4345953;32;20383;-79
2022/11/22 09:22:08;;;;;;;1.73;1.60;;;0.60;99.90;;;;;;4357540;32;20093;-78
2022/11/22 09:24:34;;;;;;;0.95;0.95;;;0.70;99.90;;;;;;4363176;32;20114;-78
2022/11/22 09:26:59;;;;;;;0.93;0.93;;;0.80;99.90;;;;;;4363211;32;20082;-79
2022/11/22 09:29:25;;;;;;;2.72;2.22;;;0.80;99.90;;;;;;4351575;32;20629;-78
2022/11/22 09:31:51;;;;;;;0.80;0.80;;;0.80;99.90;;;;;;4344080;32;20160;-78
2022/11/22 09:34:18;;;;;;;5.05;2.78;;;0.90;99.90;;;;;;4337311;32;20430;-78
2022/11/22 09:36:44;;;;;;;3.28;1.92;;;0.90;99.90;;;;;;4350419;32;20109;-77
2022/11/22 09:39:10;;;;;;;3.97;1.98;;;0.90;99.90;;;;;;4355299;32;21135;-79
2022/11/22 09:41:57;;;;;;;1.35;1.25;;;0.90;99.90;;;;;;4363810;32;20089;-79
2022/11/22 09:44:38;;;;;;;1.05;1.05;;;1.00;99.90;;;;;;4367862;32;20117;-81
2022/11/22 09:47:32;;;;;;;8.43;2.25;;;1.00;99.90;;;;;;4346191;32;20328;-78
2022/11/22 09:50:08;;;;;;;1.95;1.58;;;1.00;99.90;;;;;;4335499;32;20102;-79
2022/11/22 09:52:43;;;;;;;1.98;1.67;;;1.00;99.90;;;;;;4347300;32;20150;-79
2022/11/22 09:55:21;;;;;;;2.75;2.50;;;1.00;99.90;;;;;;4361029;32;20622;-78
2022/11/22 09:57:51;;;;;;;0.50;0.50;;;1.10;99.90;;;;;;4357649;32;20104;-78
2022/11/22 10:00:21;;;;;;;3.47;1.85;;;1.10;99.90;;;;;;4339116;32;20340;-78
2022/11/22 10:02:55;;;;;;;1.20;1.05;;;1.00;99.90;;;;;;4339358;32;20696;-79
2022/11/22 10:05:24;;;;;;;1.10;1.05;;;1.10;99.90;;;;;;4332356;32;20231;-78
2022/11/22 10:07:56;;;;;;;1.25;1.08;;;1.10;99.90;;;;;;4346478;32;20078;-79
2022/11/22 10:10:31;;;;;;;5.47;1.98;;;1.20;99.90;;;;;;4353268;32;20086;-78
2022/11/22 10:13:04;;;;;;;0.52;0.52;;;1.30;99.90;;;;;;4353841;32;20121;-79
2022/11/22 10:15:39;;;;;;;2.08;1.87;;;1.30;99.90;;;;;;4363971;32;20074;-78
2022/11/22 10:18:11;;;;;;;6.82;2.45;;;1.30;99.90;;;;;;4345548;32;20176;-78
2022/11/22 10:20:40;;;;;;;6.72;2.00;;;1.30;99.90;;;;;;4333185;32;20247;-78
2022/11/22 10:23:19;;;;;;;4.07;1.90;;;1.30;99.90;;;;;;4320960;32;20115;-79
2022/11/22 10:25:50;;;;;;;0.70;0.70;;;1.30;99.90;;;;;;4329972;32;20752;-79
2022/11/22 10:28:24;;;;;;;0.77;0.77;;;1.40;99.90;;;;;;4329072;32;20137;-80
2022/11/22 10:31:03;;;;;;;0.60;0.60;;;1.40;99.90;;;;;;4316428;32;20797;-78
2022/11/22 10:34:10;;;;;;;0.73;0.73;;;1.40;99.90;;;;;;4322370;32;20729;-78
2022/11/22 10:37:03;;;;;;;0.77;0.77;;;1.30;99.90;;;;;;4317436;32;20657;-77
2022/11/22 10:39:45;;;;;;;5.25;1.85;;;1.30;99.90;;;;;;4336542;32;20093;-78
2022/11/22 10:42:31;;;;;;;4.95;2.15;;;1.30;99.90;;;;;;4349411;32;20789;-79
2022/11/22 10:45:19;;;;;;;1.65;1.40;;;1.50;99.90;;;;;;4336446;32;20117;-78
2022/11/22 10:47:55;;;;;;;1.75;1.23;;;1.60;99.90;;;;;;4337003;32;20951;-78
2022/11/22 10:50:30;;;;;;;1.50;1.20;;;1.50;99.90;;;;;;4336948;32;20879;-78
2022/11/22 10:53:26;;;;;;;1.00;1.00;;;1.60;99.90;;;;;;4333385;32;20197;-78
2022/11/22 10:55:58;;;;;;;0.73;0.73;;;1.70;99.90;;;;;;4342574;32;20891;-78
2022/11/22 10:58:48;;;;;;;3.40;1.10;;;1.80;99.90;;;;;;4334652;32;20496;-78
2022/11/22 11:01:33;;;;;;;0.93;0.93;;;1.80;99.90;;;;;;4320317;32;20090;-78
2022/11/22 11:04:00;;;;;;;1.02;1.02;;;1.80;99.90;;;;;;4327247;32;20183;-78
2022/11/22 11:06:33;;;;;;;1.05;1.05;;;1.80;99.90;;;;;;4343224;32;20686;-78
2022/11/22 11:09:08;;;;;;;1.48;1.37;;;1.80;99.90;;;;;;4349608;32;20386;-79
2022/11/22 11:11:38;;;;;;;1.37;1.27;;;1.70;99.90;;;;;;4347427;32;20404;-78
2022/11/22 11:14:16;;;;;;;1.23;1.20;;;1.70;99.90;;;;;;4344999;32;20332;-78
2022/11/22 11:16:43;;;;;;;1.20;1.17;;;1.80;99.90;;;;;;4330462;32;20666;-78
2022/11/22 11:19:19;;;;;;;1.00;1.00;;;1.80;99.90;;;;;;4330284;32;20109;-78
2022/11/22 11:22:06;;;;;;;0.60;0.60;;;1.80;99.90;;;;;;4337217;32;20801;-80
2022/11/22 11:24:34;;;;;;;0.50;0.50;;;1.90;99.90;;;;;;4324051;32;20086;-80
2022/11/22 11:27:01;;;;;;;2.35;2.15;;;2.00;99.90;;;;;;4363415;32;20517;-80
2022/11/22 11:29:35;;;;;;;2.25;1.90;;;2.10;99.90;;;;;;4351086;32;20767;-79
2022/11/22 11:32:19;;;;;;;7.82;1.83;;;2.20;99.90;;;;;;4353686;32;20269;-78
2022/11/22 11:34:55;;;;;;;0.80;0.80;;;2.20;99.90;;;;;;4342084;32;20894;-80
2022/11/22 11:37:33;;;;;;;6.22;2.40;;;2.20;99.90;;;;;;4359502;32;20350;-82
2022/11/22 11:39:58;;;;;;;1.52;1.05;;;2.10;99.90;;;;;;4359631;32;20094;-80
2022/11/22 11:42:27;;;;;;;0.75;0.65;;;2.10;99.90;;;;;;4367224;32;20093;-80
2022/11/22 11:44:54;;;;;;;2.15;1.87;;;2.10;99.90;;;;;;4362751;32;20417;-81
2022/11/22 11:47:31;;;;;;;3.03;1.37;;;2.20;99.90;;;;;;4350056;32;20168;-80
2022/11/22 11:49:57;;;;;;;0.75;0.75;;;2.20;99.90;;;;;;4341415;32;21863;-80
2022/11/22 11:52:24;;;;;;;8.20;2.03;;;2.20;99.90;;;;;;4335425;32;20083;-79
2022/11/22 11:54:55;;;;;;;1.12;1.08;;;2.20;99.90;;;;;;4341892;32;20134;-80
2022/11/22 11:57:27;;;;;;;0.65;0.65;;;2.20;99.90;;;;;;4354404;32;20748;-80
2022/11/22 11:59:54;;;;;;;0.80;0.80;;;2.20;99.90;;;;;;4345640;32;20417;-79
2022/11/22 12:02:33;;;;;;;6.60;1.92;;;2.20;99.90;;;;;;4346393;32;21017;-79
2022/11/22 12:05:06;;;;;;;1.37;1.02;;;2.20;99.90;;;;;;4347305;32;20174;-79
2022/11/22 12:07:35;;;;;;;0.55;0.55;;;2.30;99.90;;;;;;4365148;32;20887;-79
2022/11/22 12:10:21;;;;;;;2.45;2.05;;;2.30;99.90;;;;;;4350017;32;20596;-79
2022/11/22 12:12:52;;;;;;;1.05;1.05;;;2.30;99.90;;;;;;4355173;32;20545;-80
2022/11/22 12:15:25;;;;;;;2.12;1.58;;;2.40;99.90;;;;;;4362841;32;20455;-79
2022/11/22 12:18:16;;;;;;;1.25;1.23;;;2.30;99.90;;;;;;4352177;32;20196;-79
2022/11/22 12:20:59;;;;;;;1.08;1.08;;;2.20;99.90;;;;;;4337481;32;20507;-79
2022/11/22 12:23:39;;;;;;;0.52;0.52;;;2.20;99.90;;;;;;4348664;32;20098;-79
2022/11/22 12:26:06;;;;;;;0.77;0.73;;;2.20;99.90;;;;;;4361689;32;20122;-79
2022/11/22 12:28:31;;;;;;;1.45;1.35;;;2.30;99.90;;;;;;4361616;32;20824;-80
2022/11/22 12:31:04;;;;;;;1.95;1.17;;;2.30;99.90;;;;;;4350431;32;21058;-79
2022/11/22 12:33:42;;;;;;;2.28;1.55;;;2.40;99.90;;;;;;4354593;32;20837;-79
2022/11/22 12:36:17;;;;;;;2.58;2.08;;;2.40;99.90;;;;;;4353295;32;20828;-79
2022/11/22 12:38:44;;;;;;;2.05;1.50;;;2.40;99.90;;;;;;4365894;32;20173;-79
2022/11/22 12:41:12;;;;;;;1.15;1.15;;;2.40;99.90;;;;;;4364485;32;20078;-79
2022/11/22 12:44:00;;;;;;;3.45;1.90;;;2.50;99.90;;;;;;4368559;32;20289;-80
2022/11/22 12:46:39;;;;;;;1.20;1.10;;;2.50;99.90;;;;;;4365585;32;20197;-80
2022/11/22 12:49:31;;;;;;;1.05;0.95;;;2.60;99.90;;;;;;4355830;32;20202;-79
2022/11/22 12:52:23;;;;;;;2.95;1.58;;;2.60;99.90;;;;;;4346603;32;20302;-80
2022/11/22 12:55:02;;;;;;;3.47;1.48;;;2.70;99.90;;;;;;4339525;32;20097;-80
2022/11/22 12:57:41;;;;;;;4.68;2.42;;;2.70;99.90;;;;;;4368685;32;20085;-80
2022/11/22 13:00:25;;;;;;;0.68;0.68;;;2.60;99.90;;;;;;4344501;32;20181;-80
2022/11/22 13:02:59;;;;;;;1.25;1.17;;;2.50;99.90;;;;;;4356949;32;20811;-80